createdAt,value
2023-02-06T00:01:23.382Z,1.60
2023-02-06T00:03:50.040Z,1.60
2023-02-06T00:06:16.915Z,1.60
2023-02-06T00:08:43.669Z,1.60
2023-02-06T00:11:13.350Z,1.70
2023-02-06T00:13:40.035Z,1.60
2023-02-06T00:16:25.358Z,1.60
2023-02-06T00:18:53.237Z,1.60
2023-02-06T00:21:22.030Z,1.70
2023-02-06T00:23:49.813Z,1.70
2023-02-06T00:26:17.243Z,1.80
2023-02-06T00:28:45.059Z,1.70
2023-02-06T00:31:11.951Z,1.70
2023-02-06T00:33:38.688Z,1.70
2023-02-06T00:36:06.399Z,1.80
2023-02-06T00:38:33.354Z,1.50
2023-02-06T00:41:00.104Z,1.30
2023-02-06T00:43:26.809Z,1.40
2023-02-06T00:45:55.028Z,1.30
2023-02-06T00:48:22.169Z,1.20
2023-02-06T00:50:50.240Z,1.20
2023-02-06T00:53:17.117Z,1.40
2023-02-06T00:55:43.824Z,1.40
2023-02-06T00:58:10.665Z,1.30
2023-02-06T01:00:37.294Z,1.20
2023-02-06T01:03:04.021Z,1.20
2023-02-06T01:05:30.635Z,1.00
2023-02-06T01:07:57.232Z,1.10
2023-02-06T01:10:23.985Z,1.10
2023-02-06T01:12:50.711Z,1.10
2023-02-06T01:15:17.350Z,1.10
2023-02-06T01:17:44.003Z,1.00
2023-02-06T01:20:12.902Z,1.00
2023-02-06T01:22:39.701Z,1.10
2023-02-06T01:25:07.063Z,1.10
2023-02-06T01:27:36.581Z,1.00
2023-02-06T01:30:04.614Z,1.20
2023-02-06T01:32:31.256Z,1.10
2023-02-06T01:34:57.863Z,1.00
2023-02-06T01:37:24.531Z,1.10
2023-02-06T01:39:51.191Z,1.10
2023-02-06T01:42:17.883Z,0.90
2023-02-06T01:44:44.608Z,0.90
2023-02-06T01:47:11.430Z,0.90
2023-02-06T01:49:50.866Z,0.90
2023-02-06T01:52:19.815Z,1.00
2023-02-06T01:54:51.115Z,1.10
2023-02-06T01:57:20.215Z,1.10
2023-02-06T01:59:53.175Z,1.00
2023-02-06T02:02:21.062Z,1.00
2023-02-06T02:04:48.328Z,1.10
2023-02-06T02:07:24.156Z,1.20
2023-02-06T02:09:51.673Z,1.20
2023-02-06T02:12:19.209Z,1.10
2023-02-06T02:14:49.023Z,1.20
2023-02-06T02:17:34.759Z,1.30
2023-02-06T02:20:38.920Z,1.40
2023-02-06T02:23:22.472Z,1.30
2023-02-06T02:26:13.517Z,1.30
2023-02-06T02:29:04.389Z,1.40
2023-02-06T02:32:12.572Z,1.40
2023-02-06T02:34:58.798Z,1.50
2023-02-06T02:37:52.143Z,1.40
2023-02-06T02:40:47.882Z,1.50
2023-02-06T02:43:32.768Z,1.60
2023-02-06T02:45:59.379Z,1.40
2023-02-06T02:48:30.435Z,1.50
2023-02-06T02:50:59.860Z,1.40
2023-02-06T02:53:27.707Z,1.50
2023-02-06T02:55:54.841Z,1.60
2023-02-06T02:58:26.305Z,1.50
2023-02-06T03:01:02.297Z,1.50
2023-02-06T03:03:32.438Z,1.50
2023-02-06T03:06:26.511Z,1.60
2023-02-06T03:09:14.928Z,1.70
2023-02-06T03:11:51.043Z,1.70
2023-02-06T03:14:29.019Z,1.80
2023-02-06T03:17:03.332Z,1.70
2023-02-06T03:19:33.612Z,1.70
2023-02-06T03:22:02.580Z,1.40
2023-02-06T03:24:33.930Z,1.50
2023-02-06T03:27:03.511Z,1.70
2023-02-06T03:29:33.757Z,1.60
2023-02-06T03:32:32.778Z,1.60
2023-02-06T03:35:20.375Z,1.60
2023-02-06T03:37:48.472Z,1.50
2023-02-06T03:40:16.236Z,1.50
2023-02-06T03:42:50.296Z,1.40
2023-02-06T03:45:45.367Z,1.20
2023-02-06T03:48:18.241Z,1.30
2023-02-06T03:50:47.850Z,1.20
2023-02-06T03:53:16.038Z,1.10
2023-02-06T03:55:44.651Z,1.00
2023-02-06T03:58:13.911Z,1.00
2023-02-06T04:00:42.868Z,1.00
2023-02-06T04:03:11.185Z,1.10
2023-02-06T04:05:38.654Z,0.90
2023-02-06T04:08:05.813Z,1.00
2023-02-06T04:10:32.598Z,1.10
2023-02-06T04:12:59.269Z,1.00
2023-02-06T04:15:26.119Z,1.10
2023-02-06T04:18:00.324Z,1.10
2023-02-06T04:20:29.257Z,1.10
2023-02-06T04:22:56.401Z,1.10
2023-02-06T04:25:23.239Z,1.00
2023-02-06T04:27:50.264Z,0.90
2023-02-06T04:30:18.089Z,1.20
2023-02-06T04:32:44.861Z,1.10
2023-02-06T04:35:11.967Z,1.00
2023-02-06T04:37:38.851Z,0.90
2023-02-06T04:40:06.078Z,0.90
2023-02-06T04:42:32.806Z,1.10
2023-02-06T04:44:59.626Z,1.20
2023-02-06T04:47:26.325Z,1.20
2023-02-06T04:49:52.975Z,1.10
2023-02-06T04:52:19.784Z,1.10
2023-02-06T04:54:46.425Z,1.00
2023-02-06T04:57:13.091Z,0.90
2023-02-06T04:59:39.754Z,0.90
2023-02-06T05:02:06.434Z,1.00
2023-02-06T05:04:33.187Z,1.10
2023-02-06T05:06:59.835Z,1.10
2023-02-06T05:09:26.654Z,1.20
2023-02-06T05:11:53.309Z,1.20
2023-02-06T05:14:19.942Z,1.30
2023-02-06T05:16:46.579Z,1.40
2023-02-06T05:19:13.419Z,1.10
2023-02-06T05:21:40.076Z,1.00
2023-02-06T05:24:06.837Z,1.00
2023-02-06T05:26:33.535Z,1.00
2023-02-06T05:29:00.178Z,1.00
2023-02-06T05:31:26.868Z,0.70
2023-02-06T05:33:54.956Z,0.90
2023-02-06T05:36:22.893Z,0.80
2023-02-06T05:38:52.703Z,0.90
2023-02-06T05:41:19.337Z,1.00
2023-02-06T05:43:46.032Z,1.00
2023-02-06T05:46:13.404Z,1.00
2023-02-06T05:48:40.607Z,0.90
2023-02-06T05:51:07.282Z,0.80
2023-02-06T05:53:34.092Z,0.90
2023-02-06T05:56:00.853Z,1.00
2023-02-06T05:58:27.738Z,1.00
2023-02-06T06:00:54.453Z,1.20
2023-02-06T06:03:21.105Z,1.10
2023-02-06T06:05:48.451Z,1.10
2023-02-06T06:08:15.497Z,1.00
2023-02-06T06:10:42.164Z,1.10
2023-02-06T06:13:08.848Z,1.10
2023-02-06T06:15:35.798Z,1.10
2023-02-06T06:18:03.161Z,1.00
2023-02-06T06:20:29.890Z,0.90
2023-02-06T06:22:56.548Z,1.00
2023-02-06T06:25:23.248Z,1.20
2023-02-06T06:27:49.937Z,1.20
2023-02-06T06:30:16.815Z,1.00
2023-02-06T06:32:43.463Z,0.90
2023-02-06T06:35:10.174Z,1.00
2023-02-06T06:37:36.926Z,1.20
2023-02-06T06:40:04.170Z,1.30
2023-02-06T06:42:30.969Z,1.30
2023-02-06T06:44:57.739Z,1.10
2023-02-06T06:47:25.365Z,1.10
2023-02-06T06:49:52.086Z,1.10
2023-02-06T06:52:24.742Z,1.20
2023-02-06T06:54:52.698Z,1.30
2023-02-06T06:57:20.400Z,1.30
2023-02-06T06:59:47.120Z,1.20
2023-02-06T07:02:14.572Z,1.40
2023-02-06T07:04:41.508Z,1.50
2023-02-06T07:07:08.342Z,1.50
2023-02-06T07:09:35.085Z,1.50
2023-02-06T07:12:01.765Z,1.60
2023-02-06T07:14:28.425Z,1.60
2023-02-06T07:16:56.186Z,1.40
2023-02-06T07:19:23.302Z,1.40
2023-02-06T07:21:50.132Z,1.30
2023-02-06T07:24:16.902Z,1.30
2023-02-06T07:26:43.667Z,1.00
2023-02-06T07:29:10.529Z,1.00
2023-02-06T07:31:37.258Z,0.80
2023-02-06T07:34:04.206Z,0.80
2023-02-06T07:36:30.862Z,0.90
2023-02-06T07:38:57.764Z,0.90
2023-02-06T07:41:24.454Z,0.90
2023-02-06T07:43:51.143Z,0.90
2023-02-06T07:46:17.927Z,0.80
2023-02-06T07:48:44.551Z,0.80
2023-02-06T07:51:11.205Z,0.80
2023-02-06T07:53:38.429Z,0.80
2023-02-06T07:56:16.573Z,0.80
2023-02-06T07:58:43.992Z,1.00
2023-02-06T08:01:11.234Z,1.10
2023-02-06T08:03:38.328Z,1.20
2023-02-06T08:06:12.901Z,1.30
2023-02-06T08:08:39.690Z,1.40
2023-02-06T08:11:12.374Z,1.60
2023-02-06T08:13:39.251Z,1.70
2023-02-06T08:16:17.518Z,1.80
2023-02-06T08:18:44.363Z,1.80
2023-02-06T08:21:14.094Z,1.90
2023-02-06T08:23:41.406Z,1.90
2023-02-06T08:26:09.478Z,1.70
2023-02-06T08:28:37.370Z,1.60
2023-02-06T08:31:14.232Z,1.80
2023-02-06T08:33:41.727Z,1.90
2023-02-06T08:36:09.497Z,1.80
2023-02-06T08:38:36.750Z,1.80
2023-02-06T08:41:04.026Z,2.00
2023-02-06T08:43:33.016Z,1.80
2023-02-06T08:45:59.893Z,1.40
2023-02-06T08:48:27.030Z,1.50
2023-02-06T08:51:04.402Z,1.60
2023-02-06T08:53:31.173Z,1.40
2023-02-06T08:56:03.632Z,1.40
2023-02-06T08:58:30.862Z,1.20
2023-02-06T09:00:58.158Z,1.30
2023-02-06T09:03:24.841Z,1.40
2023-02-06T09:05:52.687Z,1.50
2023-02-06T09:08:20.996Z,1.50
2023-02-06T09:10:47.940Z,1.40
2023-02-06T09:13:15.332Z,1.50
2023-02-06T09:15:43.205Z,1.60
2023-02-06T09:18:09.962Z,1.40
2023-02-06T09:20:36.663Z,1.50
2023-02-06T09:23:03.364Z,1.60
2023-02-06T09:25:30.070Z,1.60
2023-02-06T09:27:57.174Z,1.70
2023-02-06T09:30:24.001Z,2.00
2023-02-06T09:32:50.711Z,2.30
2023-02-06T09:35:17.426Z,2.50
2023-02-06T09:37:44.148Z,2.60
2023-02-06T09:40:13.512Z,2.70
2023-02-06T09:42:41.756Z,2.90
2023-02-06T09:45:24.207Z,3.00
2023-02-06T09:47:58.260Z,2.60
2023-02-06T09:50:48.957Z,2.50
2023-02-06T09:53:15.530Z,2.30
2023-02-06T09:55:46.367Z,2.50
2023-02-06T09:58:27.802Z,2.70
2023-02-06T10:01:00.430Z,2.60
2023-02-06T10:03:45.970Z,2.30
2023-02-06T10:06:20.833Z,2.80
2023-02-06T10:09:14.052Z,2.60
2023-02-06T10:11:49.035Z,2.90
2023-02-06T10:14:24.289Z,2.80
2023-02-06T10:17:04.982Z,2.50
2023-02-06T10:19:56.661Z,3.00
2023-02-06T10:22:45.029Z,3.10
2023-02-06T10:25:32.107Z,3.20
2023-02-06T10:28:02.867Z,3.30
2023-02-06T10:30:57.955Z,3.20
2023-02-06T10:33:49.793Z,2.90
2023-02-06T10:36:31.457Z,2.90
2023-02-06T10:39:30.414Z,2.60
2023-02-06T10:42:16.654Z,2.90
2023-02-06T10:45:18.405Z,3.10
2023-02-06T10:48:10.509Z,3.10
2023-02-06T10:50:48.467Z,3.40
2023-02-06T10:53:24.033Z,3.30
2023-02-06T10:55:59.617Z,3.00
2023-02-06T10:58:35.605Z,2.90
2023-02-06T11:01:13.902Z,2.70
2023-02-06T11:04:20.020Z,2.60
2023-02-06T11:06:46.982Z,2.90
2023-02-06T11:09:14.639Z,2.50
2023-02-06T11:11:51.257Z,2.40
2023-02-06T11:14:20.660Z,2.70
2023-02-06T11:16:47.633Z,2.40
2023-02-06T11:19:26.586Z,2.70
2023-02-06T11:22:07.151Z,2.20
2023-02-06T11:24:34.966Z,2.20
2023-02-06T11:27:11.824Z,2.30
2023-02-06T11:29:45.548Z,2.30
2023-02-06T11:32:34.146Z,2.60
2023-02-06T11:35:28.284Z,2.70
2023-02-06T11:38:05.569Z,2.80
2023-02-06T11:40:32.343Z,2.50
2023-02-06T11:43:21.966Z,2.70
2023-02-06T11:45:52.170Z,2.70
2023-02-06T11:48:39.696Z,2.60
2023-02-06T11:51:08.802Z,2.60
2023-02-06T11:53:36.795Z,2.80
2023-02-06T11:56:20.576Z,2.80
2023-02-06T11:59:00.536Z,2.70
2023-02-06T12:01:27.200Z,2.60
2023-02-06T12:03:58.476Z,2.60
2023-02-06T12:06:30.236Z,2.50
2023-02-06T12:08:59.973Z,2.50
2023-02-06T12:11:33.109Z,2.30
2023-02-06T12:14:34.293Z,2.10
2023-02-06T12:17:03.521Z,2.00
2023-02-06T12:19:36.078Z,2.00
2023-02-06T12:22:15.716Z,1.80
2023-02-06T12:24:45.995Z,1.70
2023-02-06T12:27:38.319Z,1.70
2023-02-06T12:30:57.326Z,1.40
2023-02-06T12:33:35.186Z,1.40
2023-02-06T12:36:12.854Z,1.30
2023-02-06T12:39:01.949Z,1.50
2023-02-06T12:41:34.771Z,1.50
2023-02-06T12:44:28.079Z,1.70
2023-02-06T12:47:01.150Z,1.70
2023-02-06T12:50:15.817Z,1.50
2023-02-06T12:52:55.955Z,1.30
2023-02-06T12:55:35.441Z,1.50
2023-02-06T12:58:04.663Z,1.60
2023-02-06T13:01:00.050Z,1.50
2023-02-06T13:03:45.428Z,1.50
2023-02-06T13:06:20.178Z,1.60
2023-02-06T13:09:00.571Z,1.50
2023-02-06T13:11:39.100Z,1.70
2023-02-06T13:14:23.073Z,1.90
2023-02-06T13:17:11.779Z,1.50
2023-02-06T13:19:41.418Z,1.60
2023-02-06T13:22:08.095Z,1.70
2023-02-06T13:24:38.935Z,1.90
2023-02-06T13:27:08.430Z,1.90
2023-02-06T13:30:02.525Z,1.90
2023-02-06T13:32:30.613Z,1.60
2023-02-06T13:35:13.246Z,2.00
2023-02-06T13:37:47.867Z,2.10
2023-02-06T13:40:24.016Z,2.40
2023-02-06T13:43:13.746Z,2.10
2023-02-06T13:46:05.093Z,2.50
2023-02-06T13:48:59.510Z,2.70
2023-02-06T13:51:50.939Z,2.60
2023-02-06T13:54:35.723Z,2.70
2023-02-06T13:57:40.026Z,3.00
2023-02-06T14:00:15.761Z,2.80
2023-02-06T14:03:04.069Z,2.50
2023-02-06T14:05:59.050Z,2.00
2023-02-06T14:09:10.016Z,2.10
2023-02-06T14:11:39.633Z,1.80
2023-02-06T14:14:18.035Z,2.00
2023-02-06T14:17:09.560Z,2.00
2023-02-06T14:20:05.992Z,2.10
2023-02-06T14:22:52.489Z,2.20
2023-02-06T14:25:47.440Z,2.10
2023-02-06T14:28:38.418Z,2.20
2023-02-06T14:31:17.508Z,2.10
2023-02-06T14:34:15.599Z,1.90
2023-02-06T14:37:10.263Z,1.90
2023-02-06T14:39:42.892Z,1.70
2023-02-06T14:42:18.784Z,1.80
2023-02-06T14:44:51.181Z,1.70
2023-02-06T14:47:26.072Z,1.70
2023-02-06T14:49:54.020Z,1.70
2023-02-06T14:52:25.050Z,1.80
2023-02-06T14:54:52.406Z,1.70
2023-02-06T14:57:31.272Z,1.80
2023-02-06T15:00:16.716Z,1.80
2023-02-06T15:02:43.453Z,1.70
2023-02-06T15:05:24.702Z,2.00
2023-02-06T15:08:05.822Z,1.90
2023-02-06T15:10:37.518Z,2.20
2023-02-06T15:13:04.860Z,2.10
2023-02-06T15:15:33.600Z,2.00
2023-02-06T15:18:15.425Z,1.70
2023-02-06T15:20:51.805Z,1.70
2023-02-06T15:23:50.635Z,1.70
2023-02-06T15:26:38.196Z,1.80
2023-02-06T15:29:17.538Z,1.80
2023-02-06T15:31:49.324Z,1.70
2023-02-06T15:34:19.651Z,1.80
2023-02-06T15:36:46.421Z,1.60
2023-02-06T15:39:14.675Z,1.60
2023-02-06T15:41:43.164Z,1.60
2023-02-06T15:44:17.843Z,1.50
2023-02-06T15:46:46.043Z,1.60
2023-02-06T15:49:37.020Z,1.60
2023-02-06T15:52:04.922Z,1.70
2023-02-06T15:54:32.113Z,1.70
2023-02-06T15:57:17.261Z,1.80
2023-02-06T15:59:44.950Z,1.80
2023-02-06T16:02:33.154Z,1.70
2023-02-06T16:05:01.388Z,1.70
2023-02-06T16:07:32.276Z,1.60
2023-02-06T16:10:07.320Z,1.60
2023-02-06T16:12:39.739Z,1.70
2023-02-06T16:15:33.266Z,1.50
2023-02-06T16:18:02.686Z,1.60
2023-02-06T16:20:32.317Z,1.50
2023-02-06T16:23:17.929Z,1.40
2023-02-06T16:25:58.547Z,1.40
2023-02-06T16:28:27.227Z,1.20
2023-02-06T16:31:03.072Z,1.20
2023-02-06T16:33:32.952Z,1.30
2023-02-06T16:36:00.134Z,1.40
2023-02-06T16:38:27.011Z,1.20
2023-02-06T16:40:53.807Z,1.20
2023-02-06T16:43:20.640Z,1.20
2023-02-06T16:45:49.011Z,1.20
2023-02-06T16:48:17.564Z,1.10
2023-02-06T16:50:45.647Z,1.20
2023-02-06T16:53:20.167Z,1.10
2023-02-06T16:55:47.307Z,1.00
2023-02-06T16:58:20.947Z,1.10
2023-02-06T17:00:48.048Z,1.10
2023-02-06T17:03:17.392Z,1.10
2023-02-06T17:05:45.739Z,1.20
2023-02-06T17:08:18.458Z,1.30
2023-02-06T17:10:46.753Z,1.30
2023-02-06T17:13:24.407Z,1.40
2023-02-06T17:15:54.911Z,1.40
2023-02-06T17:18:22.871Z,1.30
2023-02-06T17:20:52.773Z,1.30
2023-02-06T17:23:20.411Z,1.30
2023-02-06T17:25:47.197Z,1.30
2023-02-06T17:28:16.709Z,1.40
2023-02-06T17:30:44.520Z,1.40
2023-02-06T17:33:11.747Z,1.40
2023-02-06T17:35:38.968Z,1.40
2023-02-06T17:38:07.468Z,1.30
2023-02-06T17:40:36.202Z,1.40
2023-02-06T17:43:04.620Z,1.50
2023-02-06T17:45:31.931Z,1.60
2023-02-06T17:47:58.700Z,1.60
2023-02-06T17:50:27.278Z,1.60
2023-02-06T17:52:55.753Z,1.60
2023-02-06T17:55:24.022Z,1.60
2023-02-06T17:57:50.986Z,1.60
2023-02-06T18:00:20.331Z,1.60
2023-02-06T18:02:47.126Z,1.70
2023-02-06T18:05:13.927Z,1.70
2023-02-06T18:07:41.221Z,1.70
2023-02-06T18:10:09.372Z,1.70
2023-02-06T18:12:36.031Z,1.70
2023-02-06T18:15:03.608Z,1.70
2023-02-06T18:17:31.067Z,1.60
2023-02-06T18:19:57.968Z,1.60
2023-02-06T18:22:24.737Z,1.50
2023-02-06T18:24:51.518Z,1.40
2023-02-06T18:27:19.649Z,1.50
2023-02-06T18:29:50.165Z,1.50
2023-02-06T18:32:18.699Z,1.50
2023-02-06T18:34:45.926Z,1.40
2023-02-06T18:37:12.713Z,1.30
2023-02-06T18:39:39.651Z,1.30
2023-02-06T18:42:25.206Z,1.30
2023-02-06T18:44:51.983Z,1.30
2023-02-06T18:47:19.720Z,1.20
2023-02-06T18:49:46.751Z,1.30
2023-02-06T18:52:13.806Z,1.30
2023-02-06T18:54:40.800Z,1.20
2023-02-06T18:57:07.716Z,1.20
2023-02-06T18:59:35.173Z,1.20
2023-02-06T19:02:02.722Z,1.10
2023-02-06T19:04:29.776Z,1.10
2023-02-06T19:06:56.603Z,1.10
2023-02-06T19:09:23.442Z,1.10
2023-02-06T19:11:50.167Z,1.00
2023-02-06T19:14:22.374Z,1.00
2023-02-06T19:16:50.713Z,1.00
2023-02-06T19:19:17.657Z,1.00
2023-02-06T19:21:44.934Z,1.00
2023-02-06T19:24:14.120Z,0.90
2023-02-06T19:26:41.912Z,0.90
2023-02-06T19:29:08.904Z,0.90
2023-02-06T19:31:39.050Z,0.90
2023-02-06T19:34:06.064Z,1.00
2023-02-06T19:36:33.231Z,1.00
2023-02-06T19:39:02.559Z,1.00
2023-02-06T19:41:31.323Z,0.80
2023-02-06T19:44:02.082Z,0.80
2023-02-06T19:46:28.785Z,0.60
2023-02-06T19:48:56.386Z,0.50
2023-02-06T19:51:34.667Z,0.70
2023-02-06T19:54:01.751Z,0.60
2023-02-06T19:56:32.896Z,0.70
2023-02-06T19:59:01.912Z,0.60
2023-02-06T20:01:30.312Z,0.60
2023-02-06T20:03:59.778Z,0.60
2023-02-06T20:06:28.364Z,0.50
2023-02-06T20:08:56.859Z,0.40
2023-02-06T20:11:23.647Z,0.50
2023-02-06T20:13:55.455Z,0.40
2023-02-06T20:16:24.884Z,0.50
2023-02-06T20:18:52.327Z,0.40
2023-02-06T20:21:29.488Z,0.30
2023-02-06T20:23:57.802Z,0.30
2023-02-06T20:26:28.838Z,0.20
2023-02-06T20:28:55.980Z,0.20
2023-02-06T20:31:23.416Z,0.20
2023-02-06T20:33:50.490Z,0.10
2023-02-06T20:36:19.904Z,0.20
2023-02-06T20:38:51.128Z,0.10
2023-02-06T20:41:19.109Z,0.10
2023-02-06T20:43:47.971Z,0.10
2023-02-06T20:46:19.526Z,0.10
2023-02-06T20:48:52.030Z,0.00
2023-02-06T20:51:18.802Z,0.10
2023-02-06T20:53:45.443Z,0.00
2023-02-06T20:56:14.569Z,0.10
2023-02-06T20:58:42.098Z,0.10
2023-02-06T21:01:24.814Z,-0.10
2023-02-06T21:03:54.803Z,-0.10
2023-02-06T21:06:22.084Z,-0.10
2023-02-06T21:08:57.405Z,-0.10
2023-02-06T21:11:29.270Z,-0.20
2023-02-06T21:13:58.142Z,-0.30
2023-02-06T21:16:26.355Z,-0.20
2023-02-06T21:18:53.674Z,-0.30
2023-02-06T21:21:21.166Z,-0.20
2023-02-06T21:23:47.918Z,-0.30
2023-02-06T21:26:17.350Z,-0.10
2023-02-06T21:28:46.049Z,-0.10
2023-02-06T21:31:36.893Z,-0.10
2023-02-06T21:34:12.370Z,0.00
2023-02-06T21:36:39.872Z,0.10
2023-02-06T21:39:07.247Z,0.10
2023-02-06T21:41:34.920Z,0.10
2023-02-06T21:44:02.185Z,0.10
2023-02-06T21:46:31.842Z,0.00
2023-02-06T21:48:58.505Z,0.00
2023-02-06T21:51:25.285Z,-0.10
2023-02-06T21:53:51.996Z,-0.10
2023-02-06T21:56:21.911Z,-0.20
2023-02-06T21:58:49.202Z,-0.20
2023-02-06T22:01:18.313Z,-0.30
2023-02-06T22:03:46.038Z,-0.30
2023-02-06T22:06:13.637Z,-0.20
2023-02-06T22:08:43.006Z,-0.20
2023-02-06T22:11:16.600Z,-0.30
2023-02-06T22:13:44.176Z,-0.30
2023-02-06T22:16:13.086Z,-0.30
2023-02-06T22:18:40.625Z,-0.30
2023-02-06T22:21:12.983Z,-0.20
2023-02-06T22:23:41.121Z,-0.10
2023-02-06T22:26:09.418Z,-0.10
2023-02-06T22:28:36.127Z,-0.10
2023-02-06T22:31:18.572Z,0.00
2023-02-06T22:33:45.557Z,-0.10
2023-02-06T22:36:18.021Z,-0.10
2023-02-06T22:38:45.827Z,-0.20
2023-02-06T22:41:15.801Z,-0.10
2023-02-06T22:43:44.223Z,-0.20
2023-02-06T22:46:27.636Z,-0.20
2023-02-06T22:48:55.071Z,-0.10
2023-02-06T22:51:22.227Z,-0.10
2023-02-06T22:53:49.284Z,-0.20
2023-02-06T22:56:31.766Z,-0.30
2023-02-06T22:59:11.999Z,-0.20
2023-02-06T23:01:46.141Z,-0.30
2023-02-06T23:04:24.272Z,-0.30
2023-02-06T23:06:51.297Z,-0.30
2023-02-06T23:09:24.063Z,-0.20
2023-02-06T23:11:51.692Z,-0.10
2023-02-06T23:14:19.568Z,-0.10
2023-02-06T23:16:47.318Z,0.00
2023-02-06T23:19:15.490Z,-0.20
2023-02-06T23:21:43.763Z,-0.30
2023-02-06T23:24:11.394Z,-0.50
2023-02-06T23:26:40.288Z,-0.40
2023-02-06T23:29:08.420Z,-0.40
2023-02-06T23:31:36.255Z,-0.30
2023-02-06T23:34:03.202Z,-0.40
2023-02-06T23:36:30.055Z,-0.40
2023-02-06T23:38:56.826Z,-0.50
2023-02-06T23:41:26.350Z,-0.60
2023-02-06T23:43:58.867Z,-0.70
2023-02-06T23:46:26.924Z,-0.70
2023-02-06T23:48:53.873Z,-0.80
2023-02-06T23:51:21.595Z,-0.80
2023-02-06T23:53:49.111Z,-0.90
2023-02-06T23:56:25.555Z,-0.90
2023-02-06T23:58:53.778Z,-0.90
